createdAt,value
2017-09-17T00:00:13.124Z,96.60
2017-09-17T00:02:40.691Z,94.60
2017-09-17T00:05:08.465Z,94.20
2017-09-17T00:07:36.044Z,93.50
2017-09-17T00:10:04.397Z,93.30
2017-09-17T00:12:33.437Z,93.10
2017-09-17T00:15:03.182Z,93.50
2017-09-17T00:17:32.150Z,93.50
2017-09-17T00:19:59.644Z,94.90
2017-09-17T00:22:27.137Z,93.70
2017-09-17T00:24:54.619Z,93.80
2017-09-17T00:27:22.866Z,94.20
2017-09-17T00:29:50.342Z,94.10
2017-09-17T00:32:17.823Z,93.90
2017-09-17T00:34:46.065Z,93.10
2017-09-17T00:37:13.537Z,93.10
2017-09-17T00:39:41.807Z,92.10
2017-09-17T00:42:09.293Z,92.10
2017-09-17T00:44:37.538Z,92.80
2017-09-17T00:47:05.020Z,92.80
2017-09-17T00:49:33.266Z,90.40
2017-09-17T00:52:00.750Z,90.30
2017-09-17T00:54:28.998Z,89.30
2017-09-17T00:56:56.486Z,89.20
2017-09-17T00:59:24.742Z,89.80
2017-09-17T01:01:52.227Z,89.80
2017-09-17T01:04:20.481Z,90.00
2017-09-17T01:06:47.972Z,90.00
2017-09-17T01:09:16.222Z,89.60
2017-09-17T01:11:43.693Z,89.50
2017-09-17T01:14:11.947Z,89.80
2017-09-17T01:16:39.431Z,89.70
2017-09-17T01:19:07.673Z,89.70
2017-09-17T01:21:35.149Z,89.60
2017-09-17T01:24:02.639Z,89.20
2017-09-17T01:26:30.121Z,88.10
2017-09-17T01:28:57.606Z,86.60
2017-09-17T01:31:25.107Z,88.60
2017-09-17T01:33:53.346Z,93.30
2017-09-17T01:36:20.821Z,93.10
2017-09-17T01:38:48.297Z,91.00
2017-09-17T01:41:16.551Z,83.20
2017-09-17T01:43:44.051Z,83.10
2017-09-17T01:46:11.534Z,84.90
2017-09-17T01:48:39.014Z,85.20
2017-09-17T01:51:06.506Z,85.20
2017-09-17T01:53:34.769Z,86.70
2017-09-17T01:56:02.259Z,86.60
2017-09-17T01:58:30.504Z,88.40
2017-09-17T02:00:57.991Z,87.90
2017-09-17T02:03:26.239Z,85.20
2017-09-17T02:05:53.725Z,85.20
2017-09-17T02:08:21.970Z,84.20
2017-09-17T02:10:49.460Z,84.20
2017-09-17T02:13:17.702Z,85.60
2017-09-17T02:15:45.186Z,85.60
2017-09-17T02:18:13.429Z,86.40
2017-09-17T02:20:40.920Z,86.30
2017-09-17T02:23:09.183Z,87.00
2017-09-17T02:25:37.447Z,87.50
2017-09-17T02:28:04.926Z,87.50
2017-09-17T02:30:32.412Z,87.20
2017-09-17T02:32:59.900Z,88.70
2017-09-17T02:35:27.369Z,88.80
2017-09-17T02:37:54.874Z,88.60
2017-09-17T02:40:23.124Z,89.40
2017-09-17T02:42:50.615Z,89.30
2017-09-17T02:45:18.866Z,87.60
2017-09-17T02:47:46.341Z,87.60
2017-09-17T02:50:14.578Z,87.20
2017-09-17T02:52:42.054Z,87.10
2017-09-17T02:55:09.529Z,87.00
2017-09-17T02:57:37.011Z,87.20
2017-09-17T03:00:04.499Z,86.40
2017-09-17T03:02:31.969Z,86.70
2017-09-17T03:04:59.459Z,87.50
2017-09-17T03:07:26.939Z,87.10
2017-09-17T03:09:55.203Z,86.60
2017-09-17T03:12:23.449Z,84.80
2017-09-17T03:14:50.930Z,84.70
2017-09-17T03:17:18.412Z,84.90
2017-09-17T03:19:46.657Z,84.60
2017-09-17T03:22:14.138Z,84.60
2017-09-17T03:24:42.398Z,85.10
2017-09-17T03:27:09.884Z,85.00
2017-09-17T03:29:38.138Z,84.70
2017-09-17T03:32:05.613Z,84.60
2017-09-17T03:34:33.868Z,86.00
2017-09-17T03:37:01.355Z,85.80
2017-09-17T03:39:29.597Z,86.00
2017-09-17T03:41:57.079Z,86.00
2017-09-17T03:44:25.335Z,86.40
2017-09-17T03:46:52.819Z,86.40
2017-09-17T03:49:21.071Z,86.50
2017-09-17T03:51:48.557Z,85.50
2017-09-17T03:54:16.813Z,85.50
2017-09-17T03:56:45.074Z,85.80
2017-09-17T03:59:12.547Z,85.70
2017-09-17T04:01:40.035Z,84.90
2017-09-17T04:04:08.280Z,85.00
2017-09-17T04:06:35.767Z,85.00
2017-09-17T04:09:04.027Z,86.00
2017-09-17T04:11:31.501Z,85.90
2017-09-17T04:13:59.769Z,87.00
2017-09-17T04:16:28.018Z,87.40
2017-09-17T04:18:55.511Z,87.20
2017-09-17T04:21:23.765Z,96.30
2017-09-17T04:23:51.254Z,96.20
2017-09-17T04:26:19.503Z,96.50
2017-09-17T04:28:46.998Z,96.50
2017-09-17T04:31:14.474Z,85.60
2017-09-17T04:33:41.968Z,86.60
2017-09-17T04:36:09.454Z,87.00
2017-09-17T04:38:37.707Z,89.70
2017-09-17T04:41:05.195Z,89.50
2017-09-17T04:43:33.437Z,88.50
2017-09-17T04:46:00.923Z,88.30
2017-09-17T04:48:29.180Z,87.60
2017-09-17T04:50:56.659Z,87.60
2017-09-17T04:53:24.921Z,87.50
2017-09-17T04:55:52.405Z,87.40
2017-09-17T04:58:20.660Z,89.20
2017-09-17T05:00:48.143Z,89.00
2017-09-17T05:03:16.386Z,87.50
2017-09-17T05:05:43.878Z,87.40
2017-09-17T05:08:11.383Z,87.50
2017-09-17T05:10:38.880Z,85.80
2017-09-17T05:13:07.134Z,88.60
2017-09-17T05:15:34.623Z,87.50
2017-09-17T05:18:02.884Z,89.80
2017-09-17T05:20:30.374Z,89.70
2017-09-17T05:22:58.636Z,90.30
2017-09-17T05:25:26.892Z,90.10
2017-09-17T05:27:55.143Z,90.50
2017-09-17T05:30:22.630Z,90.50
2017-09-17T05:32:50.119Z,90.80
2017-09-17T05:35:18.399Z,91.70
2017-09-17T05:37:46.664Z,91.40
2017-09-17T05:40:14.918Z,91.20
2017-09-17T05:42:42.398Z,91.20
2017-09-17T05:45:10.651Z,90.20
2017-09-17T05:47:38.139Z,90.20
2017-09-17T05:50:06.405Z,90.10
2017-09-17T05:52:34.668Z,90.30
2017-09-17T05:55:02.917Z,90.50
2017-09-17T05:57:30.406Z,90.60
2017-09-17T05:59:57.895Z,90.50
2017-09-17T06:02:26.143Z,90.60
2017-09-17T06:04:53.634Z,90.50
2017-09-17T06:07:21.906Z,91.50
2017-09-17T06:09:50.175Z,91.60
2017-09-17T06:12:18.422Z,91.90
2017-09-17T06:14:45.915Z,91.80
2017-09-17T06:17:14.178Z,92.60
2017-09-17T06:19:41.668Z,92.50
2017-09-17T06:22:09.154Z,92.40
2017-09-17T06:24:36.641Z,92.50
2017-09-17T06:27:05.158Z,92.60
2017-09-17T06:29:33.407Z,92.60
2017-09-17T06:32:00.904Z,92.60
2017-09-17T06:34:28.418Z,92.60
2017-09-17T06:36:55.916Z,92.10
2017-09-17T06:39:24.204Z,92.20
2017-09-17T06:41:51.694Z,92.20
2017-09-17T06:44:19.175Z,92.20
2017-09-17T06:46:46.656Z,92.40
2017-09-17T06:49:14.897Z,92.60
2017-09-17T06:51:42.373Z,92.50
2017-09-17T06:54:09.879Z,95.00
2017-09-17T06:56:37.362Z,91.60
2017-09-17T06:59:04.846Z,92.30
2017-09-17T07:01:32.341Z,92.50
2017-09-17T07:04:00.605Z,92.80
2017-09-17T07:06:28.854Z,93.00
2017-09-17T07:08:56.338Z,93.00
2017-09-17T07:11:24.600Z,92.30
2017-09-17T07:13:52.099Z,92.20
2017-09-17T07:16:19.587Z,92.50
2017-09-17T07:18:47.065Z,92.60
2017-09-17T07:21:14.555Z,92.50
2017-09-17T07:23:42.813Z,92.40
2017-09-17T07:26:10.311Z,92.40
2017-09-17T07:28:37.798Z,91.30
2017-09-17T07:31:05.288Z,92.70
2017-09-17T07:33:32.787Z,92.00
2017-09-17T07:36:00.278Z,91.90
2017-09-17T07:38:27.773Z,92.30
2017-09-17T07:40:55.266Z,91.40
2017-09-17T07:43:22.764Z,91.10
2017-09-17T07:45:50.255Z,90.70
2017-09-17T07:48:17.732Z,90.70
2017-09-17T07:50:45.988Z,90.30
2017-09-17T07:53:13.481Z,90.30
2017-09-17T07:55:40.983Z,91.20
2017-09-17T07:58:08.482Z,90.40
2017-09-17T08:00:36.729Z,90.70
2017-09-17T08:03:04.210Z,90.60
2017-09-17T08:05:32.466Z,87.60
2017-09-17T08:07:59.992Z,87.50
2017-09-17T08:10:27.475Z,91.60
2017-09-17T08:12:54.963Z,90.60
2017-09-17T08:15:23.217Z,88.90
2017-09-17T08:17:50.698Z,88.70
2017-09-17T08:20:18.947Z,88.20
2017-09-17T08:22:46.418Z,88.00
2017-09-17T08:25:13.929Z,87.10
2017-09-17T08:27:41.434Z,83.00
2017-09-17T08:30:08.927Z,92.90
2017-09-17T08:32:37.176Z,81.70
2017-09-17T08:35:04.668Z,81.60
2017-09-17T08:37:32.149Z,79.70
2017-09-17T08:39:59.651Z,81.30
2017-09-17T08:42:27.140Z,91.60
2017-09-17T08:44:55.392Z,83.70
2017-09-17T08:47:22.873Z,83.50
2017-09-17T08:49:51.122Z,77.00
2017-09-17T08:52:18.607Z,76.90
2017-09-17T08:54:46.850Z,78.00
2017-09-17T08:57:14.338Z,77.90
2017-09-17T08:59:42.587Z,81.50
2017-09-17T09:02:10.080Z,81.60
2017-09-17T09:04:38.334Z,79.50
2017-09-17T09:07:07.345Z,78.80
2017-09-17T09:09:35.597Z,81.10
2017-09-17T09:12:03.082Z,81.00
2017-09-17T09:14:31.339Z,81.50
2017-09-17T09:16:59.588Z,77.00
2017-09-17T09:19:27.086Z,76.90
2017-09-17T09:21:55.343Z,78.10
2017-09-17T09:24:22.825Z,78.00
2017-09-17T09:26:51.097Z,76.40
2017-09-17T09:29:19.346Z,78.00
2017-09-17T09:31:46.840Z,78.00
2017-09-17T09:34:15.077Z,76.10
2017-09-17T09:36:42.555Z,76.10
2017-09-17T09:39:10.028Z,77.30
2017-09-17T09:41:38.278Z,79.30
2017-09-17T09:44:05.768Z,79.20
2017-09-17T09:46:34.014Z,77.60
2017-09-17T09:49:01.503Z,77.40
2017-09-17T09:51:29.760Z,76.80
2017-09-17T09:53:57.260Z,76.70
2017-09-17T09:56:24.746Z,78.60
2017-09-17T09:58:52.227Z,80.10
2017-09-17T10:01:19.749Z,74.10
2017-09-17T10:03:47.283Z,78.00
2017-09-17T10:06:15.558Z,72.90
2017-09-17T10:08:43.797Z,75.10
2017-09-17T10:11:11.296Z,75.50
2017-09-17T10:13:39.567Z,74.90
2017-09-17T10:16:07.820Z,75.70
2017-09-17T10:18:35.358Z,75.50
2017-09-17T10:21:02.864Z,66.60
2017-09-17T10:23:31.111Z,71.00
2017-09-17T10:25:58.600Z,70.90
2017-09-17T10:28:26.855Z,65.40
2017-09-17T10:30:54.355Z,65.30
2017-09-17T10:33:22.615Z,72.40
2017-09-17T10:35:50.877Z,63.80
2017-09-17T10:38:19.138Z,67.30
2017-09-17T10:40:46.611Z,67.00
2017-09-17T10:43:14.090Z,65.20
2017-09-17T10:45:42.348Z,61.90
2017-09-17T10:48:11.343Z,65.60
2017-09-17T10:50:40.350Z,49.30
2017-09-17T10:53:08.611Z,49.10
2017-09-17T10:55:36.090Z,49.00
2017-09-17T10:58:04.342Z,51.30
2017-09-17T11:00:31.833Z,51.60
2017-09-17T11:03:00.096Z,49.70
2017-09-17T11:05:28.358Z,49.40
2017-09-17T11:07:55.943Z,49.30
2017-09-17T11:10:23.468Z,49.30
2017-09-17T11:12:50.954Z,56.10
2017-09-17T11:15:19.218Z,52.10
2017-09-17T11:17:48.231Z,49.50
2017-09-17T11:20:16.486Z,49.30
2017-09-17T11:22:43.975Z,49.10
2017-09-17T11:25:12.391Z,49.60
2017-09-17T11:27:39.907Z,49.40
2017-09-17T11:30:08.166Z,49.60
2017-09-17T11:32:36.601Z,56.00
2017-09-17T11:35:04.086Z,56.60
2017-09-17T11:37:31.693Z,52.50
2017-09-17T11:40:00.029Z,53.50
2017-09-17T11:42:28.761Z,48.90
2017-09-17T11:44:58.417Z,44.90
2017-09-17T11:47:26.314Z,44.80
2017-09-17T11:49:55.078Z,46.10
2017-09-17T11:52:23.128Z,46.00
2017-09-17T11:54:51.402Z,44.50
2017-09-17T11:57:19.359Z,47.40
2017-09-17T11:59:47.094Z,46.70
2017-09-17T12:02:15.073Z,45.90
2017-09-17T12:04:44.669Z,46.40
2017-09-17T12:07:12.599Z,46.20
2017-09-17T12:09:41.117Z,57.30
2017-09-17T12:12:10.196Z,44.60
2017-09-17T12:14:39.083Z,43.10
2017-09-17T12:17:07.661Z,43.10
2017-09-17T12:19:36.230Z,46.60
2017-09-17T12:22:04.366Z,44.60
2017-09-17T12:24:33.607Z,45.90
2017-09-17T12:27:01.650Z,45.80
2017-09-17T12:29:30.606Z,44.90
2017-09-17T12:31:58.818Z,44.70
2017-09-17T12:34:27.336Z,44.90
2017-09-17T12:36:54.847Z,44.80
2017-09-17T12:39:24.441Z,44.40
2017-09-17T12:41:53.633Z,45.70
2017-09-17T12:44:23.612Z,45.70
2017-09-17T12:46:51.343Z,45.40
2017-09-17T12:49:20.161Z,44.40
2017-09-17T12:51:48.782Z,44.30
2017-09-17T12:54:17.123Z,41.20
2017-09-17T12:56:45.701Z,41.60
2017-09-17T12:59:13.819Z,40.50
2017-09-17T13:01:42.355Z,42.10
2017-09-17T13:04:10.812Z,41.70
2017-09-17T13:06:39.221Z,42.20
2017-09-17T13:09:07.342Z,41.40
2017-09-17T13:11:34.991Z,39.50
2017-09-17T13:14:02.475Z,39.40
2017-09-17T13:16:31.390Z,41.60
2017-09-17T13:18:59.642Z,39.90
2017-09-17T13:21:28.629Z,39.90
2017-09-17T13:23:56.113Z,39.90
2017-09-17T13:26:24.358Z,39.40
2017-09-17T13:28:51.837Z,39.40
2017-09-17T13:31:20.827Z,39.60
2017-09-17T13:33:48.315Z,39.50
2017-09-17T13:36:16.567Z,40.30
2017-09-17T13:38:44.064Z,40.20
2017-09-17T13:41:11.538Z,40.30
2017-09-17T13:43:39.032Z,39.80
2017-09-17T13:46:06.528Z,39.70
2017-09-17T13:48:34.791Z,40.70
2017-09-17T13:51:03.057Z,41.30
2017-09-17T13:53:30.547Z,41.10
2017-09-17T13:55:58.035Z,41.40
2017-09-17T13:58:25.513Z,41.60
2017-09-17T14:00:53.619Z,41.30
2017-09-17T14:03:22.869Z,41.40
2017-09-17T14:06:06.146Z,41.50
2017-09-17T14:08:37.039Z,41.10
2017-09-17T14:11:04.527Z,41.00
2017-09-17T14:13:32.006Z,41.20
2017-09-17T14:16:00.255Z,40.40
2017-09-17T14:18:27.736Z,40.40
2017-09-17T14:20:55.254Z,40.50
2017-09-17T14:23:22.727Z,40.20
2017-09-17T14:25:50.214Z,41.00
2017-09-17T14:28:17.690Z,41.70
2017-09-17T14:30:45.942Z,42.30
2017-09-17T14:33:14.931Z,40.50
2017-09-17T14:35:43.617Z,39.70
2017-09-17T14:38:11.109Z,39.70
2017-09-17T14:40:39.353Z,38.90
2017-09-17T14:43:08.376Z,38.20
2017-09-17T14:45:36.632Z,37.90
2017-09-17T14:48:04.891Z,38.30
2017-09-17T14:50:32.381Z,38.30
2017-09-17T14:53:00.634Z,38.20
2017-09-17T14:55:28.109Z,38.10
2017-09-17T14:57:55.594Z,37.80
2017-09-17T15:00:23.069Z,36.60
2017-09-17T15:02:50.560Z,36.90
2017-09-17T15:05:18.052Z,37.30
2017-09-17T15:07:46.303Z,37.60
2017-09-17T15:10:13.781Z,37.60
2017-09-17T15:12:41.258Z,38.70
2017-09-17T15:15:09.511Z,39.30
2017-09-17T15:17:37.771Z,39.00
2017-09-17T15:20:05.249Z,39.20
2017-09-17T15:22:32.734Z,40.80
2017-09-17T15:25:00.223Z,41.80
2017-09-17T15:27:27.704Z,39.90
2017-09-17T15:29:55.185Z,39.90
2017-09-17T15:32:23.443Z,40.30
2017-09-17T15:34:50.935Z,40.30
2017-09-17T15:37:19.191Z,40.00
2017-09-17T15:39:48.182Z,40.40
2017-09-17T15:42:17.184Z,40.80
2017-09-17T15:44:44.671Z,40.70
2017-09-17T15:47:12.163Z,40.70
2017-09-17T15:49:39.655Z,41.10
2017-09-17T15:52:07.172Z,41.10
2017-09-17T15:54:34.653Z,41.60
2017-09-17T15:57:02.135Z,41.50
2017-09-17T15:59:29.614Z,41.40
2017-09-17T16:01:57.884Z,42.30
2017-09-17T16:04:26.134Z,42.30
2017-09-17T16:06:53.618Z,42.20
2017-09-17T16:09:21.882Z,41.90
2017-09-17T16:11:49.362Z,41.80
2017-09-17T16:14:17.618Z,42.70
2017-09-17T16:16:45.103Z,42.40
2017-09-17T16:19:13.354Z,42.80
2017-09-17T16:21:40.833Z,42.70
2017-09-17T16:24:09.081Z,43.90
2017-09-17T16:26:36.573Z,43.90
2017-09-17T16:29:04.840Z,45.20
2017-09-17T16:31:33.098Z,46.30
2017-09-17T16:34:01.357Z,45.10
2017-09-17T16:36:28.852Z,45.10
2017-09-17T16:38:57.101Z,45.00
2017-09-17T16:41:24.581Z,45.00
2017-09-17T16:43:52.071Z,45.30
2017-09-17T16:46:19.553Z,45.00
2017-09-17T16:48:47.032Z,45.30
2017-09-17T16:51:14.526Z,44.90
2017-09-17T16:53:42.773Z,46.10
2017-09-17T16:56:10.279Z,46.00
2017-09-17T16:58:37.789Z,47.80
2017-09-17T17:01:05.276Z,48.50
2017-09-17T17:03:33.571Z,49.30
2017-09-17T17:06:01.074Z,49.30
2017-09-17T17:08:28.565Z,50.30
2017-09-17T17:10:57.558Z,49.90
2017-09-17T17:13:25.824Z,49.80
2017-09-17T17:15:53.310Z,49.80
2017-09-17T17:18:21.554Z,51.20
2017-09-17T17:20:49.043Z,51.30
2017-09-17T17:23:17.301Z,46.10
2017-09-17T17:25:45.550Z,46.10
2017-09-17T17:28:13.126Z,46.10
2017-09-17T17:30:40.602Z,46.00
2017-09-17T17:33:08.858Z,46.90
2017-09-17T17:35:36.378Z,46.80
2017-09-17T17:38:03.868Z,49.40
2017-09-17T17:40:31.354Z,46.90
2017-09-17T17:42:59.601Z,47.40
2017-09-17T17:45:27.106Z,47.50
2017-09-17T17:47:55.709Z,47.50
2017-09-17T17:50:23.191Z,47.50
2017-09-17T17:52:50.673Z,47.70
2017-09-17T17:55:18.146Z,48.70
2017-09-17T17:57:45.640Z,48.50
2017-09-17T18:00:13.220Z,48.70
2017-09-17T18:02:40.715Z,48.90
2017-09-17T18:05:08.198Z,50.20
2017-09-17T18:07:36.487Z,51.00
2017-09-17T18:10:04.754Z,49.60
2017-09-17T18:12:33.001Z,49.40
2017-09-17T18:15:00.494Z,49.30
2017-09-17T18:17:28.753Z,50.10
2017-09-17T18:19:56.241Z,49.90
2017-09-17T18:22:24.512Z,50.40
2017-09-17T18:24:52.771Z,51.60
2017-09-17T18:27:21.030Z,52.80
2017-09-17T18:29:48.521Z,53.70
2017-09-17T18:32:16.785Z,51.10
2017-09-17T18:34:44.275Z,51.00
2017-09-17T18:37:12.518Z,54.80
2017-09-17T18:39:39.997Z,54.60
2017-09-17T18:42:08.572Z,51.50
2017-09-17T18:44:36.083Z,51.50
2017-09-17T18:47:03.575Z,51.60
2017-09-17T18:49:31.076Z,61.10
2017-09-17T18:51:58.582Z,51.10
2017-09-17T18:54:26.070Z,58.50
2017-09-17T18:56:54.343Z,58.00
2017-09-17T18:59:23.352Z,55.00
2017-09-17T19:01:51.619Z,53.50
2017-09-17T19:04:19.878Z,53.10
2017-09-17T19:06:47.375Z,53.00
2017-09-17T19:09:15.686Z,52.90
2017-09-17T19:11:43.175Z,52.80
2017-09-17T19:14:10.661Z,53.40
2017-09-17T19:16:38.928Z,52.70
2017-09-17T19:19:07.186Z,55.00
2017-09-17T19:21:34.682Z,55.00
2017-09-17T19:24:02.947Z,54.60
2017-09-17T19:26:31.185Z,52.90
2017-09-17T19:28:58.667Z,52.90
2017-09-17T19:31:27.649Z,54.10
2017-09-17T19:33:55.137Z,54.10
2017-09-17T19:36:23.387Z,54.60
2017-09-17T19:38:50.871Z,54.60
2017-09-17T19:41:20.030Z,54.30
2017-09-17T19:43:47.517Z,53.80
2017-09-17T19:46:16.510Z,54.00
2017-09-17T19:48:44.769Z,54.30
2017-09-17T19:51:12.258Z,54.10
2017-09-17T19:53:40.506Z,54.60
2017-09-17T19:56:07.991Z,54.60
2017-09-17T19:58:36.255Z,54.70
2017-09-17T20:01:03.748Z,54.60
2017-09-17T20:03:31.226Z,54.80
2017-09-17T20:05:58.716Z,55.20
2017-09-17T20:08:26.206Z,55.10
2017-09-17T20:10:54.459Z,56.60
2017-09-17T20:13:21.936Z,56.50
2017-09-17T20:15:50.217Z,56.10
2017-09-17T20:18:18.469Z,55.80
2017-09-17T20:20:45.950Z,55.70
2017-09-17T20:23:14.217Z,56.00
2017-09-17T20:25:41.706Z,56.00
2017-09-17T20:28:09.950Z,56.80
2017-09-17T20:30:37.430Z,56.70
2017-09-17T20:33:05.689Z,57.00
2017-09-17T20:35:33.981Z,57.30
2017-09-17T20:38:02.233Z,57.50
2017-09-17T20:40:29.722Z,57.30
2017-09-17T20:42:58.461Z,57.80
2017-09-17T20:45:25.946Z,57.60
2017-09-17T20:47:53.421Z,57.60
2017-09-17T20:50:21.675Z,57.60
2017-09-17T20:52:49.174Z,57.60
2017-09-17T20:55:17.421Z,58.10
2017-09-17T20:57:44.912Z,58.10
2017-09-17T21:00:12.412Z,57.60
2017-09-17T21:02:39.919Z,59.90
2017-09-17T21:05:08.172Z,58.30
2017-09-17T21:07:35.658Z,58.30
2017-09-17T21:10:03.910Z,69.10
2017-09-17T21:12:31.389Z,69.10
2017-09-17T21:14:59.656Z,58.80
2017-09-17T21:17:27.925Z,58.40
2017-09-17T21:19:55.416Z,58.30
2017-09-17T21:22:22.927Z,58.70
2017-09-17T21:24:50.416Z,59.20
2017-09-17T21:27:18.660Z,61.00
2017-09-17T21:29:46.155Z,60.00
2017-09-17T21:32:14.408Z,60.90
2017-09-17T21:34:41.900Z,60.90
2017-09-17T21:37:10.163Z,61.90
2017-09-17T21:39:38.421Z,63.50
2017-09-17T21:42:05.906Z,63.20
2017-09-17T21:44:34.165Z,62.00
2017-09-17T21:47:01.660Z,62.40
2017-09-17T21:49:29.143Z,61.10
2017-09-17T21:51:56.631Z,62.50
2017-09-17T21:54:24.123Z,62.60
2017-09-17T21:56:52.379Z,67.00
2017-09-17T21:59:19.870Z,66.90
2017-09-17T22:01:47.358Z,62.10
2017-09-17T22:04:14.839Z,65.30
2017-09-17T22:06:42.331Z,62.40
2017-09-17T22:09:10.593Z,64.30
2017-09-17T22:11:39.588Z,61.80
2017-09-17T22:14:07.839Z,63.50
2017-09-17T22:16:35.314Z,63.50
2017-09-17T22:19:02.804Z,64.50
2017-09-17T22:21:36.947Z,65.20
2017-09-17T22:24:04.425Z,65.10
2017-09-17T22:26:31.900Z,66.10
2017-09-17T22:28:59.397Z,65.70
2017-09-17T22:31:27.652Z,66.80
2017-09-17T22:33:55.915Z,66.50
2017-09-17T22:36:23.395Z,66.50
2017-09-17T22:38:51.634Z,67.20
2017-09-17T22:41:19.105Z,67.20
2017-09-17T22:43:46.592Z,67.30
2017-09-17T22:46:14.841Z,68.60
2017-09-17T22:48:42.318Z,68.40
2017-09-17T22:51:09.795Z,68.50
2017-09-17T22:53:38.041Z,68.60
2017-09-17T22:56:05.525Z,68.90
2017-09-17T22:58:33.766Z,69.10
2017-09-17T23:01:01.251Z,69.10
2017-09-17T23:03:29.507Z,70.20
2017-09-17T23:05:56.987Z,70.10
2017-09-17T23:08:25.234Z,70.40
2017-09-17T23:10:52.727Z,70.30
2017-09-17T23:13:20.984Z,70.30
2017-09-17T23:15:48.462Z,70.30
2017-09-17T23:18:16.716Z,70.60
2017-09-17T23:20:44.222Z,70.50
2017-09-17T23:23:11.708Z,71.40
2017-09-17T23:25:39.185Z,71.00
2017-09-17T23:28:06.656Z,70.80
2017-09-17T23:30:34.150Z,70.80
2017-09-17T23:33:02.404Z,71.80
2017-09-17T23:35:30.664Z,72.00
2017-09-17T23:37:58.147Z,72.00
2017-09-17T23:40:26.394Z,72.90
2017-09-17T23:42:53.879Z,72.90
2017-09-17T23:45:22.135Z,72.50
2017-09-17T23:47:49.624Z,72.10
2017-09-17T23:50:17.865Z,72.40
2017-09-17T23:52:45.342Z,72.40
2017-09-17T23:55:12.818Z,72.80
2017-09-17T23:57:41.059Z,72.40
